createdAt,value
2019-06-23T00:01:22.629Z,19.10
2019-06-23T00:03:51.280Z,19.10
2019-06-23T00:06:19.907Z,19.00
2019-06-23T00:08:48.808Z,19.00
2019-06-23T00:11:17.463Z,19.10
2019-06-23T00:13:46.008Z,19.10
2019-06-23T00:16:14.672Z,19.10
2019-06-23T00:18:43.318Z,19.10
2019-06-23T00:21:11.945Z,19.10
2019-06-23T00:23:40.557Z,19.00
2019-06-23T00:26:09.491Z,19.00
2019-06-23T00:28:38.136Z,19.00
2019-06-23T00:31:24.574Z,19.00
2019-06-23T00:33:53.693Z,19.00
2019-06-23T00:36:22.408Z,18.90
2019-06-23T00:38:51.039Z,18.80
2019-06-23T00:41:19.858Z,18.80
2019-06-23T00:43:48.431Z,18.80
2019-06-23T00:46:17.080Z,18.80
2019-06-23T00:48:45.707Z,18.90
2019-06-23T00:51:14.620Z,18.90
2019-06-23T00:53:43.458Z,19.00
2019-06-23T00:56:12.215Z,19.00
2019-06-23T00:58:40.835Z,19.00
2019-06-23T01:01:14.237Z,18.90
2019-06-23T01:03:43.037Z,18.90
2019-06-23T01:06:12.135Z,18.80
2019-06-23T01:08:40.794Z,18.80
2019-06-23T01:11:09.541Z,18.70
2019-06-23T01:13:38.154Z,18.70
2019-06-23T01:16:06.809Z,18.70
2019-06-23T01:18:35.432Z,18.70
2019-06-23T01:21:04.130Z,18.70
2019-06-23T01:23:32.765Z,18.70
2019-06-23T01:26:01.448Z,18.60
2019-06-23T01:28:31.310Z,18.60
2019-06-23T01:30:59.886Z,18.70
2019-06-23T01:33:28.455Z,18.70
2019-06-23T01:35:57.113Z,18.60
2019-06-23T01:38:25.814Z,18.60
2019-06-23T01:40:54.744Z,18.60
2019-06-23T01:43:23.425Z,18.60
2019-06-23T01:45:52.072Z,18.60
2019-06-23T01:48:20.649Z,18.60
2019-06-23T01:50:49.405Z,18.70
2019-06-23T01:53:18.141Z,18.70
2019-06-23T01:55:46.718Z,18.70
2019-06-23T01:58:15.373Z,18.60
2019-06-23T02:00:44.711Z,18.70
2019-06-23T02:03:13.330Z,18.60
2019-06-23T02:05:41.922Z,18.60
2019-06-23T02:08:10.561Z,18.60
2019-06-23T02:10:39.242Z,18.60
2019-06-23T02:13:07.852Z,18.60
2019-06-23T02:15:36.536Z,18.60
2019-06-23T02:18:05.157Z,18.60
2019-06-23T02:20:35.342Z,18.70
2019-06-23T02:23:05.702Z,18.80
2019-06-23T02:25:34.510Z,18.80
2019-06-23T02:28:03.130Z,18.90
2019-06-23T02:30:32.068Z,18.90
2019-06-23T02:33:00.766Z,18.90
2019-06-23T02:35:29.393Z,19.00
2019-06-23T02:37:58.059Z,19.00
2019-06-23T02:40:26.808Z,18.90
2019-06-23T02:42:55.856Z,18.80
2019-06-23T02:45:24.652Z,18.70
2019-06-23T02:48:01.205Z,18.70
2019-06-23T02:50:31.552Z,18.70
2019-06-23T02:53:07.519Z,18.70
2019-06-23T02:55:46.852Z,18.60
2019-06-23T02:58:17.086Z,18.70
2019-06-23T03:00:47.317Z,18.70
2019-06-23T03:03:16.122Z,18.60
2019-06-23T03:05:45.101Z,18.60
2019-06-23T03:08:14.006Z,18.50
2019-06-23T03:10:42.669Z,18.40
2019-06-23T03:13:11.372Z,18.40
2019-06-23T03:15:40.159Z,18.30
2019-06-23T03:18:08.782Z,18.30
2019-06-23T03:20:37.420Z,18.30
2019-06-23T03:23:06.288Z,18.20
2019-06-23T03:25:39.351Z,18.20
2019-06-23T03:28:08.318Z,18.20
2019-06-23T03:30:37.116Z,18.20
2019-06-23T03:33:05.945Z,18.20
2019-06-23T03:35:36.060Z,18.40
2019-06-23T03:38:05.696Z,18.40
2019-06-23T03:40:34.457Z,18.40
2019-06-23T03:43:03.247Z,18.50
2019-06-23T03:45:32.212Z,18.50
2019-06-23T03:48:00.993Z,18.50
2019-06-23T03:50:29.812Z,18.50
2019-06-23T03:52:58.529Z,18.50
2019-06-23T03:55:27.181Z,18.60
2019-06-23T03:57:55.798Z,18.60
2019-06-23T04:00:24.425Z,18.60
2019-06-23T04:02:53.092Z,18.60
2019-06-23T04:05:21.639Z,18.60
2019-06-23T04:07:50.194Z,18.60
2019-06-23T04:10:18.956Z,18.60
2019-06-23T04:13:09.187Z,18.70
2019-06-23T04:15:37.185Z,18.70
2019-06-23T04:18:06.051Z,18.70
2019-06-23T04:20:36.212Z,18.70
2019-06-23T04:23:04.873Z,18.80
2019-06-23T04:25:33.558Z,18.80
2019-06-23T04:28:02.113Z,18.90
2019-06-23T04:30:30.961Z,18.90
2019-06-23T04:32:59.500Z,18.90
2019-06-23T04:35:28.316Z,19.00
2019-06-23T04:37:56.932Z,19.00
2019-06-23T04:40:25.510Z,19.10
2019-06-23T04:42:54.148Z,19.20
2019-06-23T04:45:22.873Z,19.30
2019-06-23T04:47:51.943Z,19.30
2019-06-23T04:50:20.818Z,19.40
2019-06-23T04:52:49.511Z,19.40
2019-06-23T04:55:18.477Z,19.30
2019-06-23T04:57:47.127Z,19.40
2019-06-23T05:00:15.765Z,19.40
2019-06-23T05:02:44.380Z,19.40
2019-06-23T05:05:13.077Z,19.30
2019-06-23T05:07:41.719Z,19.20
2019-06-23T05:10:10.429Z,19.20
2019-06-23T05:12:39.374Z,19.10
2019-06-23T05:15:08.151Z,19.10
2019-06-23T05:17:38.069Z,19.10
2019-06-23T05:20:07.038Z,19.10
2019-06-23T05:22:35.865Z,19.30
2019-06-23T05:25:07.869Z,19.40
2019-06-23T05:27:36.438Z,19.60
2019-06-23T05:30:06.347Z,19.70
2019-06-23T05:32:35.371Z,19.80
2019-06-23T05:35:05.462Z,20.00
2019-06-23T05:37:34.111Z,20.30
2019-06-23T05:40:03.508Z,20.40
2019-06-23T05:42:32.122Z,20.30
2019-06-23T05:45:00.979Z,20.30
2019-06-23T05:47:29.600Z,20.20
2019-06-23T05:49:58.751Z,20.30
2019-06-23T05:52:27.435Z,20.30
2019-06-23T05:54:56.031Z,20.30
2019-06-23T05:57:24.603Z,20.30
2019-06-23T05:59:53.276Z,20.40
2019-06-23T06:02:21.835Z,20.50
2019-06-23T06:04:50.461Z,20.40
2019-06-23T06:07:38.481Z,20.50
2019-06-23T06:10:08.901Z,20.50
2019-06-23T06:12:37.539Z,20.60
2019-06-23T06:15:06.595Z,20.60
2019-06-23T06:17:35.174Z,20.60
2019-06-23T06:20:05.337Z,20.70
2019-06-23T06:22:33.930Z,20.80
2019-06-23T06:25:03.087Z,20.90
2019-06-23T06:27:31.840Z,20.90
2019-06-23T06:30:00.488Z,20.90
2019-06-23T06:32:29.108Z,21.00
2019-06-23T06:34:57.656Z,21.00
2019-06-23T06:37:26.668Z,21.10
2019-06-23T06:39:55.216Z,21.10
2019-06-23T06:42:23.842Z,21.20
2019-06-23T06:44:52.418Z,21.20
2019-06-23T06:47:20.988Z,21.30
2019-06-23T06:49:49.525Z,21.30
2019-06-23T06:52:18.393Z,21.40
2019-06-23T06:54:47.216Z,21.40
2019-06-23T06:57:35.409Z,21.50
2019-06-23T07:00:05.612Z,21.50
2019-06-23T07:02:34.209Z,21.60
2019-06-23T07:05:02.862Z,21.60
2019-06-23T07:07:34.133Z,21.70
2019-06-23T07:10:02.026Z,21.70
2019-06-23T07:12:30.751Z,21.70
2019-06-23T07:14:59.562Z,21.80
2019-06-23T07:17:28.175Z,21.80
2019-06-23T07:19:57.074Z,21.80
2019-06-23T07:22:25.613Z,21.90
2019-06-23T07:24:54.572Z,21.90
2019-06-23T07:27:23.211Z,21.90
2019-06-23T07:30:09.945Z,22.00
2019-06-23T07:32:38.587Z,22.00
2019-06-23T07:35:07.207Z,22.00
2019-06-23T07:37:42.871Z,22.00
2019-06-23T07:40:06.775Z,22.10
2019-06-23T07:42:35.389Z,22.10
2019-06-23T07:45:05.109Z,22.10
2019-06-23T07:47:33.774Z,22.10
2019-06-23T07:50:02.400Z,22.10
2019-06-23T07:52:30.946Z,22.20
2019-06-23T07:54:59.656Z,22.20
2019-06-23T07:57:28.200Z,22.30
2019-06-23T07:59:56.913Z,22.40
2019-06-23T08:02:25.802Z,22.40
2019-06-23T08:04:54.425Z,22.50
2019-06-23T08:07:23.045Z,22.50
2019-06-23T08:09:52.041Z,22.60
2019-06-23T08:12:20.589Z,22.60
2019-06-23T08:14:49.137Z,22.70
2019-06-23T08:17:37.387Z,22.70
2019-06-23T08:20:07.730Z,22.70
2019-06-23T08:22:36.360Z,22.70
2019-06-23T08:25:05.763Z,22.80
2019-06-23T08:27:34.420Z,22.80
2019-06-23T08:30:03.040Z,22.80
2019-06-23T08:32:31.952Z,22.70
2019-06-23T08:35:00.507Z,22.70
2019-06-23T08:37:29.385Z,22.80
2019-06-23T08:39:58.343Z,22.80
2019-06-23T08:42:26.883Z,22.80
2019-06-23T08:44:55.649Z,22.90
2019-06-23T08:47:24.301Z,23.00
2019-06-23T08:49:52.852Z,23.10
2019-06-23T08:52:21.400Z,23.10
2019-06-23T08:54:49.983Z,23.30
2019-06-23T08:57:19.182Z,23.30
2019-06-23T08:59:47.801Z,23.40
2019-06-23T09:02:16.628Z,23.50
2019-06-23T09:04:45.588Z,23.50
2019-06-23T09:07:14.226Z,23.50
2019-06-23T09:09:42.795Z,23.60
2019-06-23T09:12:11.359Z,23.70
2019-06-23T09:14:39.980Z,23.90
2019-06-23T09:17:08.990Z,24.00
2019-06-23T09:19:37.563Z,24.00
2019-06-23T09:22:06.168Z,24.10
2019-06-23T09:24:34.941Z,24.10
2019-06-23T09:27:06.380Z,24.20
2019-06-23T09:29:34.931Z,24.30
2019-06-23T09:32:03.579Z,24.40
2019-06-23T09:34:32.503Z,24.50
2019-06-23T09:37:01.102Z,24.60
2019-06-23T09:39:29.741Z,24.60
2019-06-23T09:41:58.345Z,24.80
2019-06-23T09:44:27.063Z,24.80
2019-06-23T09:46:55.749Z,25.00
2019-06-23T09:49:24.524Z,25.00
2019-06-23T09:51:53.111Z,25.10
2019-06-23T09:54:21.779Z,25.10
2019-06-23T09:56:50.392Z,25.40
2019-06-23T09:59:19.176Z,25.60
2019-06-23T10:01:47.739Z,25.70
2019-06-23T10:04:16.285Z,26.10
2019-06-23T10:06:44.903Z,26.30
2019-06-23T10:09:13.613Z,26.30
2019-06-23T10:11:42.501Z,26.10
2019-06-23T10:14:11.046Z,26.10
2019-06-23T10:16:39.861Z,26.20
2019-06-23T10:19:08.868Z,26.30
2019-06-23T10:21:37.754Z,26.30
2019-06-23T10:24:06.423Z,26.30
2019-06-23T10:26:54.358Z,26.40
2019-06-23T10:29:23.182Z,26.40
2019-06-23T10:31:51.731Z,26.50
2019-06-23T10:34:20.273Z,26.50
2019-06-23T10:36:48.879Z,26.80
2019-06-23T10:39:20.500Z,27.10
2019-06-23T10:41:47.837Z,27.20
2019-06-23T10:44:16.596Z,27.20
2019-06-23T10:46:45.218Z,27.30
2019-06-23T10:49:13.835Z,27.70
2019-06-23T10:51:42.468Z,27.80
2019-06-23T10:54:11.289Z,27.70
2019-06-23T10:56:39.836Z,27.70
2019-06-23T10:59:08.503Z,27.90
2019-06-23T11:01:37.743Z,28.10
2019-06-23T11:04:06.332Z,27.80
2019-06-23T11:06:35.006Z,27.80
2019-06-23T11:09:04.425Z,27.90
2019-06-23T11:11:52.383Z,27.90
2019-06-23T11:14:21.004Z,28.30
2019-06-23T11:16:49.640Z,28.90
2019-06-23T11:19:18.287Z,29.00
2019-06-23T11:21:46.862Z,29.20
2019-06-23T11:24:15.544Z,29.70
2019-06-23T11:26:44.394Z,31.70
2019-06-23T11:29:13.020Z,35.00
2019-06-23T11:31:41.560Z,36.30
2019-06-23T11:34:10.808Z,38.50
2019-06-23T11:36:39.434Z,39.30
2019-06-23T11:39:07.971Z,40.00
2019-06-23T11:41:36.613Z,41.00
2019-06-23T11:44:05.330Z,41.80
2019-06-23T11:46:34.089Z,42.00
2019-06-23T11:49:02.813Z,40.30
2019-06-23T11:51:31.459Z,40.40
2019-06-23T11:54:00.080Z,42.30
2019-06-23T11:56:28.729Z,42.50
2019-06-23T11:58:57.354Z,43.00
2019-06-23T12:01:26.070Z,43.80
2019-06-23T12:03:54.895Z,41.80
2019-06-23T12:06:23.512Z,41.10
2019-06-23T12:08:52.158Z,41.10
2019-06-23T12:11:20.736Z,42.30
2019-06-23T12:13:49.289Z,41.50
2019-06-23T12:16:17.932Z,39.60
2019-06-23T12:18:46.913Z,37.20
2019-06-23T12:21:15.553Z,37.10
2019-06-23T12:23:44.092Z,40.70
2019-06-23T12:26:13.053Z,41.80
2019-06-23T12:28:41.748Z,39.60
2019-06-23T12:31:10.392Z,38.00
2019-06-23T12:33:39.007Z,40.40
2019-06-23T12:36:08.019Z,40.70
2019-06-23T12:38:36.653Z,40.70
2019-06-23T12:41:05.387Z,38.70
2019-06-23T12:43:34.118Z,39.10
2019-06-23T12:46:02.771Z,40.90
2019-06-23T12:48:31.362Z,38.60
2019-06-23T12:50:59.976Z,37.20
2019-06-23T12:53:28.869Z,38.10
2019-06-23T12:55:57.466Z,37.10
2019-06-23T12:58:26.097Z,35.80
2019-06-23T13:00:54.770Z,34.60
2019-06-23T13:03:23.472Z,33.50
2019-06-23T13:05:52.021Z,32.70
2019-06-23T13:08:20.570Z,32.00
2019-06-23T13:10:49.291Z,31.60
2019-06-23T13:13:17.886Z,31.20
2019-06-23T13:15:50.503Z,31.10
2019-06-23T13:18:19.438Z,31.00
2019-06-23T13:20:48.133Z,30.80
2019-06-23T13:23:16.761Z,30.60
2019-06-23T13:25:45.470Z,30.30
2019-06-23T13:28:14.108Z,30.10
2019-06-23T13:30:42.700Z,30.00
2019-06-23T13:33:11.292Z,29.90
2019-06-23T13:35:40.237Z,30.00
2019-06-23T13:38:08.850Z,30.10
2019-06-23T13:40:37.499Z,30.30
2019-06-23T13:43:06.110Z,30.40
2019-06-23T13:45:34.709Z,30.70
2019-06-23T13:48:03.823Z,31.00
2019-06-23T13:50:32.421Z,31.30
2019-06-23T13:53:01.173Z,31.70
2019-06-23T13:55:29.823Z,32.40
2019-06-23T13:57:58.409Z,32.90
2019-06-23T14:00:27.300Z,33.40
2019-06-23T14:02:55.935Z,34.00
2019-06-23T14:05:24.817Z,34.30
2019-06-23T14:07:55.638Z,34.00
2019-06-23T14:10:26.581Z,33.80
2019-06-23T14:12:55.517Z,33.30
2019-06-23T14:15:24.431Z,32.90
2019-06-23T14:17:53.414Z,32.50
2019-06-23T14:20:22.145Z,32.20
2019-06-23T14:22:50.772Z,32.10
2019-06-23T14:25:19.380Z,32.10
2019-06-23T14:27:48.396Z,32.10
2019-06-23T14:30:17.397Z,32.20
2019-06-23T14:32:46.330Z,32.40
2019-06-23T14:35:16.016Z,32.50
